Terminal Aerodrome Forecast
Issued by NWS Paducah, KY

Home | Current Version | Previous Version | Text Only | Print | Product List | Glossary On
Versions: 1 2 3 4 5 6 7 8 9 10 11 12
000
FTUS43 KPAH 241500 AAA
TAFPAH
TAF AMD
KPAH 241546Z 2416/2512 31009KT P6SM -RA SCT011 OVC035
      TEMPO 2416/2419 4SM -RA BR BKN011
     FM241900 28011KT P6SM OVC015
     FM250800 26007KT P6SM SCT015=

USA.gov is the U.S. government's official web portal to all federal, state and local government web resources and services.